This is the latest recevied weather packets stored in our database for station/object SV1BYK-4. If no packets are shown the sender has not sent any weather packets the latest 10 day(s).
| Time | Temp. | Humidity | Pressure | Rain* | Wind** | Luminosity | Snow |
|---|---|---|---|---|---|---|---|
| 1777483116 | 20.56° C | 46% | 1011.5 hPa | 0 mm | - | 0 W/m² | - |
| 1777476096 | 21.11° C | 50% | 1011.4 hPa | 0 mm | - | 0 W/m² | - |
| 1777468536 | 23.33° C | 41% | 1011.9 hPa | 0 mm | - | 0 W/m² | - |
| 1777466916 | 23.89° C | 39% | 1012.1 hPa | 0 mm | - | 0 W/m² | - |
| 1777465296 | 23.89° C | 41% | 1012.3 hPa | 0 mm | - | 0 W/m² | - |
| 1777464755 | 23.33° C | 42% | 1012.3 hPa | 0 mm | - | 0 W/m² | - |
| 1777458816 | 24.44° C | 37% | 1012.9 hPa | 0 mm | - | 0 W/m² | - |
| 1777457736 | 25° C | 40% | 1013.1 hPa | 0 mm | - | 0 W/m² | - |
| 1777455575 | 24.44° C | 42% | 1013.5 hPa | 0 mm | - | 0 W/m² | - |
| 1777455035 | 23.89° C | 42% | 1013.5 hPa | 0 mm | - | 0 W/m² | - |
| 1777453956 | 23.33° C | 43% | 1013.6 hPa | 0 mm | - | 0 W/m² | - |
| 1777451795 | 24.44° C | 41% | 1013.9 hPa | 0 mm | - | 0 W/m² | - |
| 1777446936 | 22.22° C | 46% | 1013.7 hPa | 0 mm | - | 0 W/m² | - |
| 1777444236 | 20.56° C | 48% | 1013.6 hPa | 0 mm | - | 0 W/m² | - |
| 1777442075 | 19.44° C | 53% | 1013.6 hPa | 0 mm | - | 0 W/m² | - |
| 1777437755 | 15.56° C | 62% | 1013.5 hPa | 0 mm | - | 0 W/m² | - |
| 1777433975 | 14.44° C | 66% | 1013 hPa | 0 mm | - | 0 W/m² | - |
| 1777430195 | 14.44° C | 64% | 1012.8 hPa | 0 mm | - | 0 W/m² | - |
| 1777429655 | 15° C | 64% | 1012.8 hPa | 0 mm | - | 0 W/m² | - |
| 1777426955 | 15° C | 64% | 1013.1 hPa | 0 mm | - | 0 W/m² | - |
| 1777425335 | 15° C | 65% | 1013.1 hPa | 0 mm | - | 0 W/m² | - |
| 1777423175 | 15.56° C | 64% | 1012.9 hPa | 0 mm | - | 0 W/m² | - |
| 1777416155 | 16.67° C | 65% | 1013.4 hPa | 0 mm | - | 0 W/m² | - |
| 1777413995 | 16.67° C | 72% | 1013.7 hPa | 0 mm | - | 0 W/m² | - |
| 1777409135 | 17.78° C | 66% | 1013.3 hPa | 0 mm | - | 0 W/m² | - |
* Rain latest hour (hover to see other rain measurements)
** Current wind speed in m/s (hover to see current wind gust speed)